sensor_id;sensor_type;location;lat;lon;timestamp;P1;durP1;ratioP1;P2;durP2;ratioP2
22531;SDS011;11432;46.924;7.114;2022-10-16T00:01:15;1.00;;;0.68;;
22531;SDS011;11432;46.924;7.114;2022-10-16T00:03:42;0.98;;;0.70;;
22531;SDS011;11432;46.924;7.114;2022-10-16T00:06:09;1.83;;;1.10;;
22531;SDS011;11432;46.924;7.114;2022-10-16T00:08:35;1.27;;;0.60;;
22531;SDS011;11432;46.924;7.114;2022-10-16T00:11:05;2.28;;;0.63;;
22531;SDS011;11432;46.924;7.114;2022-10-16T00:13:32;1.40;;;0.70;;
22531;SDS011;11432;46.924;7.114;2022-10-16T00:16:00;1.38;;;0.70;;
22531;SDS011;11432;46.924;7.114;2022-10-16T00:18:26;1.58;;;0.70;;
22531;SDS011;11432;46.924;7.114;2022-10-16T00:20:53;1.10;;;0.60;;
22531;SDS011;11432;46.924;7.114;2022-10-16T00:23:20;2.13;;;0.85;;
22531;SDS011;11432;46.924;7.114;2022-10-16T00:25:59;3.05;;;0.95;;
22531;SDS011;11432;46.924;7.114;2022-10-16T00:28:30;2.38;;;1.00;;
22531;SDS011;11432;46.924;7.114;2022-10-16T00:30:56;2.58;;;0.90;;
22531;SDS011;11432;46.924;7.114;2022-10-16T00:33:22;1.15;;;0.80;;
22531;SDS011;11432;46.924;7.114;2022-10-16T00:35:48;1.15;;;0.80;;
22531;SDS011;11432;46.924;7.114;2022-10-16T00:38:14;0.93;;;0.80;;
22531;SDS011;11432;46.924;7.114;2022-10-16T00:40:40;1.00;;;0.80;;
22531;SDS011;11432;46.924;7.114;2022-10-16T00:43:40;3.30;;;1.15;;
22531;SDS011;11432;46.924;7.114;2022-10-16T00:45:58;3.15;;;0.80;;
22531;SDS011;11432;46.924;7.114;2022-10-16T00:48:25;2.47;;;0.80;;
22531;SDS011;11432;46.924;7.114;2022-10-16T00:50:50;3.05;;;0.90;;
22531;SDS011;11432;46.924;7.114;2022-10-16T00:53:18;4.15;;;1.00;;
22531;SDS011;11432;46.924;7.114;2022-10-16T00:55:44;2.28;;;0.80;;
22531;SDS011;11432;46.924;7.114;2022-10-16T00:58:11;1.67;;;1.00;;
22531;SDS011;11432;46.924;7.114;2022-10-16T01:00:37;2.05;;;0.73;;
22531;SDS011;11432;46.924;7.114;2022-10-16T01:03:02;1.33;;;0.75;;
22531;SDS011;11432;46.924;7.114;2022-10-16T01:05:49;3.40;;;0.80;;
22531;SDS011;11432;46.924;7.114;2022-10-16T01:11:53;1.00;;;0.57;;
22531;SDS011;11432;46.924;7.114;2022-10-16T01:14:06;0.73;;;0.57;;
22531;SDS011;11432;46.924;7.114;2022-10-16T01:16:47;1.05;;;0.57;;
22531;SDS011;11432;46.924;7.114;2022-10-16T01:19:20;1.08;;;0.57;;
22531;SDS011;11432;46.924;7.114;2022-10-16T01:22:01;1.42;;;0.80;;
22531;SDS011;11432;46.924;7.114;2022-10-16T01:24:33;1.52;;;0.85;;
22531;SDS011;11432;46.924;7.114;2022-10-16T01:32:44;0.98;;;0.68;;
22531;SDS011;11432;46.924;7.114;2022-10-16T01:35:29;1.27;;;0.60;;
22531;SDS011;11432;46.924;7.114;2022-10-16T01:38:17;1.88;;;0.93;;
22531;SDS011;11432;46.924;7.114;2022-10-16T01:40:49;1.67;;;0.90;;
22531;SDS011;11432;46.924;7.114;2022-10-16T01:43:19;1.50;;;0.60;;
22531;SDS011;11432;46.924;7.114;2022-10-16T01:45:49;1.85;;;0.70;;
22531;SDS011;11432;46.924;7.114;2022-10-16T01:48:17;1.17;;;0.70;;
22531;SDS011;11432;46.924;7.114;2022-10-16T01:50:44;0.75;;;0.70;;
22531;SDS011;11432;46.924;7.114;2022-10-16T01:53:33;0.77;;;0.68;;
22531;SDS011;11432;46.924;7.114;2022-10-16T01:56:00;2.38;;;1.48;;
22531;SDS011;11432;46.924;7.114;2022-10-16T01:58:29;1.95;;;0.70;;
22531;SDS011;11432;46.924;7.114;2022-10-16T02:00:59;2.85;;;0.60;;
22531;SDS011;11432;46.924;7.114;2022-10-16T02:03:26;1.20;;;0.60;;
22531;SDS011;11432;46.924;7.114;2022-10-16T02:05:55;0.85;;;0.60;;
22531;SDS011;11432;46.924;7.114;2022-10-16T02:08:23;1.08;;;0.70;;
22531;SDS011;11432;46.924;7.114;2022-10-16T02:10:53;0.90;;;0.50;;
22531;SDS011;11432;46.924;7.114;2022-10-16T02:15:57;0.85;;;0.50;;
22531;SDS011;11432;46.924;7.114;2022-10-16T02:18:23;0.63;;;0.43;;
22531;SDS011;11432;46.924;7.114;2022-10-16T02:21:02;1.40;;;0.70;;
22531;SDS011;11432;46.924;7.114;2022-10-16T02:26:15;1.90;;;0.82;;
22531;SDS011;11432;46.924;7.114;2022-10-16T02:28:48;1.95;;;0.55;;
22531;SDS011;11432;46.924;7.114;2022-10-16T02:31:22;0.80;;;0.60;;
22531;SDS011;11432;46.924;7.114;2022-10-16T02:33:52;0.90;;;0.50;;
22531;SDS011;11432;46.924;7.114;2022-10-16T02:36:21;0.90;;;0.70;;
22531;SDS011;11432;46.924;7.114;2022-10-16T02:38:47;1.23;;;0.70;;
22531;SDS011;11432;46.924;7.114;2022-10-16T02:41:13;1.00;;;0.57;;
22531;SDS011;11432;46.924;7.114;2022-10-16T02:43:39;1.35;;;0.73;;
22531;SDS011;11432;46.924;7.114;2022-10-16T02:46:05;1.73;;;0.77;;
22531;SDS011;11432;46.924;7.114;2022-10-16T02:48:31;1.40;;;0.70;;
22531;SDS011;11432;46.924;7.114;2022-10-16T02:50:56;1.65;;;0.73;;
22531;SDS011;11432;46.924;7.114;2022-10-16T02:53:22;2.22;;;0.57;;
22531;SDS011;11432;46.924;7.114;2022-10-16T02:55:48;0.98;;;0.60;;
22531;SDS011;11432;46.924;7.114;2022-10-16T02:58:13;0.95;;;0.57;;
22531;SDS011;11432;46.924;7.114;2022-10-16T03:00:39;4.50;;;0.70;;
22531;SDS011;11432;46.924;7.114;2022-10-16T03:03:04;2.85;;;0.73;;
22531;SDS011;11432;46.924;7.114;2022-10-16T03:05:30;1.25;;;0.63;;
22531;SDS011;11432;46.924;7.114;2022-10-16T03:07:56;1.38;;;0.70;;
22531;SDS011;11432;46.924;7.114;2022-10-16T03:10:24;3.53;;;0.60;;
22531;SDS011;11432;46.924;7.114;2022-10-16T03:12:50;0.98;;;0.50;;
22531;SDS011;11432;46.924;7.114;2022-10-16T03:15:16;2.88;;;0.73;;
22531;SDS011;11432;46.924;7.114;2022-10-16T03:17:41;0.82;;;0.50;;
22531;SDS011;11432;46.924;7.114;2022-10-16T03:20:08;0.82;;;0.68;;
22531;SDS011;11432;46.924;7.114;2022-10-16T03:22:33;1.95;;;0.73;;
22531;SDS011;11432;46.924;7.114;2022-10-16T03:24:59;2.67;;;0.80;;
22531;SDS011;11432;46.924;7.114;2022-10-16T03:27:25;1.80;;;0.65;;
22531;SDS011;11432;46.924;7.114;2022-10-16T03:29:50;0.82;;;0.57;;
22531;SDS011;11432;46.924;7.114;2022-10-16T03:32:16;0.80;;;0.50;;
22531;SDS011;11432;46.924;7.114;2022-10-16T03:34:41;2.78;;;0.80;;
22531;SDS011;11432;46.924;7.114;2022-10-16T03:37:07;1.77;;;0.90;;
22531;SDS011;11432;46.924;7.114;2022-10-16T03:39:32;2.80;;;0.70;;
22531;SDS011;11432;46.924;7.114;2022-10-16T03:41:58;1.67;;;0.88;;
22531;SDS011;11432;46.924;7.114;2022-10-16T03:44:24;0.68;;;0.50;;
22531;SDS011;11432;46.924;7.114;2022-10-16T03:46:49;2.55;;;0.75;;
22531;SDS011;11432;46.924;7.114;2022-10-16T03:49:15;1.33;;;0.77;;
22531;SDS011;11432;46.924;7.114;2022-10-16T03:51:40;1.00;;;0.75;;
22531;SDS011;11432;46.924;7.114;2022-10-16T03:54:06;1.05;;;0.60;;
22531;SDS011;11432;46.924;7.114;2022-10-16T03:56:32;1.08;;;0.68;;
22531;SDS011;11432;46.924;7.114;2022-10-16T03:58:57;1.35;;;0.65;;
22531;SDS011;11432;46.924;7.114;2022-10-16T04:01:23;1.10;;;0.52;;
22531;SDS011;11432;46.924;7.114;2022-10-16T04:03:49;1.25;;;0.88;;
22531;SDS011;11432;46.924;7.114;2022-10-16T04:06:14;2.38;;;0.68;;
22531;SDS011;11432;46.924;7.114;2022-10-16T04:08:42;1.42;;;0.80;;
22531;SDS011;11432;46.924;7.114;2022-10-16T04:11:08;1.52;;;0.60;;
22531;SDS011;11432;46.924;7.114;2022-10-16T04:13:33;1.48;;;0.47;;
22531;SDS011;11432;46.924;7.114;2022-10-16T04:15:59;1.00;;;0.60;;
22531;SDS011;11432;46.924;7.114;2022-10-16T04:18:25;1.02;;;0.50;;
22531;SDS011;11432;46.924;7.114;2022-10-16T04:20:52;1.40;;;0.55;;
22531;SDS011;11432;46.924;7.114;2022-10-16T04:23:18;1.23;;;0.70;;
22531;SDS011;11432;46.924;7.114;2022-10-16T04:25:43;2.35;;;0.60;;
22531;SDS011;11432;46.924;7.114;2022-10-16T04:28:09;0.98;;;0.40;;
22531;SDS011;11432;46.924;7.114;2022-10-16T04:30:37;1.52;;;0.75;;
22531;SDS011;11432;46.924;7.114;2022-10-16T04:33:03;2.55;;;0.70;;
22531;SDS011;11432;46.924;7.114;2022-10-16T04:35:29;1.65;;;0.93;;
22531;SDS011;11432;46.924;7.114;2022-10-16T04:37:57;2.35;;;0.70;;
22531;SDS011;11432;46.924;7.114;2022-10-16T04:40:23;0.95;;;0.70;;
22531;SDS011;11432;46.924;7.114;2022-10-16T04:42:48;1.38;;;0.80;;
22531;SDS011;11432;46.924;7.114;2022-10-16T04:45:14;1.40;;;0.73;;
22531;SDS011;11432;46.924;7.114;2022-10-16T04:47:40;1.55;;;0.70;;
22531;SDS011;11432;46.924;7.114;2022-10-16T04:50:05;1.35;;;0.73;;
22531;SDS011;11432;46.924;7.114;2022-10-16T04:52:32;1.80;;;0.88;;
22531;SDS011;11432;46.924;7.114;2022-10-16T04:54:57;1.13;;;0.70;;
22531;SDS011;11432;46.924;7.114;2022-10-16T04:57:26;1.23;;;0.60;;
22531;SDS011;11432;46.924;7.114;2022-10-16T04:59:52;1.30;;;0.60;;
22531;SDS011;11432;46.924;7.114;2022-10-16T05:02:18;1.73;;;0.70;;
22531;SDS011;11432;46.924;7.114;2022-10-16T05:04:43;1.40;;;0.75;;
22531;SDS011;11432;46.924;7.114;2022-10-16T05:07:09;1.85;;;0.73;;
22531;SDS011;11432;46.924;7.114;2022-10-16T05:09:34;1.23;;;0.52;;
22531;SDS011;11432;46.924;7.114;2022-10-16T05:12:00;2.13;;;0.65;;
22531;SDS011;11432;46.924;7.114;2022-10-16T05:14:26;1.05;;;0.60;;
22531;SDS011;11432;46.924;7.114;2022-10-16T05:16:51;2.08;;;0.70;;
22531;SDS011;11432;46.924;7.114;2022-10-16T05:19:17;1.67;;;0.70;;
22531;SDS011;11432;46.924;7.114;2022-10-16T05:21:42;2.65;;;0.73;;
22531;SDS011;11432;46.924;7.114;2022-10-16T05:24:08;1.95;;;0.50;;
22531;SDS011;11432;46.924;7.114;2022-10-16T05:26:34;1.63;;;0.85;;
22531;SDS011;11432;46.924;7.114;2022-10-16T05:29:00;1.08;;;0.70;;
22531;SDS011;11432;46.924;7.114;2022-10-16T05:31:25;1.05;;;0.70;;
22531;SDS011;11432;46.924;7.114;2022-10-16T05:33:51;1.13;;;0.55;;
22531;SDS011;11432;46.924;7.114;2022-10-16T05:36:17;1.67;;;0.90;;
22531;SDS011;11432;46.924;7.114;2022-10-16T05:38:43;0.95;;;0.60;;
22531;SDS011;11432;46.924;7.114;2022-10-16T05:41:08;3.90;;;0.90;;
22531;SDS011;11432;46.924;7.114;2022-10-16T05:43:34;1.60;;;0.65;;
22531;SDS011;11432;46.924;7.114;2022-10-16T05:46:01;1.60;;;0.77;;
22531;SDS011;11432;46.924;7.114;2022-10-16T05:48:29;1.13;;;0.70;;
22531;SDS011;11432;46.924;7.114;2022-10-16T05:53:27;1.20;;;0.80;;
22531;SDS011;11432;46.924;7.114;2022-10-16T05:55:55;1.75;;;0.47;;
22531;SDS011;11432;46.924;7.114;2022-10-16T05:58:21;0.70;;;0.57;;
22531;SDS011;11432;46.924;7.114;2022-10-16T06:01:21;1.38;;;0.85;;
22531;SDS011;11432;46.924;7.114;2022-10-16T06:03:41;1.58;;;0.80;;
22531;SDS011;11432;46.924;7.114;2022-10-16T06:06:10;2.28;;;0.88;;
22531;SDS011;11432;46.924;7.114;2022-10-16T06:08:38;1.40;;;0.80;;
22531;SDS011;11432;46.924;7.114;2022-10-16T06:11:05;1.63;;;0.80;;
22531;SDS011;11432;46.924;7.114;2022-10-16T06:13:33;1.55;;;0.60;;
22531;SDS011;11432;46.924;7.114;2022-10-16T06:15:59;3.10;;;0.90;;
22531;SDS011;11432;46.924;7.114;2022-10-16T06:18:26;1.40;;;0.75;;
22531;SDS011;11432;46.924;7.114;2022-10-16T06:20:52;1.40;;;0.95;;
22531;SDS011;11432;46.924;7.114;2022-10-16T06:23:18;2.58;;;1.00;;
22531;SDS011;11432;46.924;7.114;2022-10-16T06:25:44;2.42;;;1.20;;
22531;SDS011;11432;46.924;7.114;2022-10-16T06:28:09;7.88;;;1.10;;
22531;SDS011;11432;46.924;7.114;2022-10-16T06:30:35;1.60;;;1.00;;
22531;SDS011;11432;46.924;7.114;2022-10-16T06:33:00;2.17;;;1.15;;
22531;SDS011;11432;46.924;7.114;2022-10-16T06:35:26;3.83;;;1.25;;
22531;SDS011;11432;46.924;7.114;2022-10-16T06:37:52;2.17;;;1.10;;
22531;SDS011;11432;46.924;7.114;2022-10-16T06:40:18;4.90;;;1.05;;
22531;SDS011;11432;46.924;7.114;2022-10-16T06:42:44;2.78;;;1.48;;
22531;SDS011;11432;46.924;7.114;2022-10-16T06:45:10;4.85;;;2.20;;
22531;SDS011;11432;46.924;7.114;2022-10-16T06:47:36;4.28;;;1.52;;
22531;SDS011;11432;46.924;7.114;2022-10-16T06:50:01;1.13;;;0.73;;
22531;SDS011;11432;46.924;7.114;2022-10-16T06:52:28;1.35;;;0.57;;
22531;SDS011;11432;46.924;7.114;2022-10-16T06:54:54;1.20;;;0.55;;
22531;SDS011;11432;46.924;7.114;2022-10-16T06:57:19;1.30;;;0.60;;
22531;SDS011;11432;46.924;7.114;2022-10-16T06:59:45;2.92;;;1.05;;
22531;SDS011;11432;46.924;7.114;2022-10-16T07:02:11;1.27;;;0.60;;
22531;SDS011;11432;46.924;7.114;2022-10-16T07:04:36;1.25;;;0.50;;
22531;SDS011;11432;46.924;7.114;2022-10-16T07:07:02;1.58;;;0.60;;
22531;SDS011;11432;46.924;7.114;2022-10-16T07:09:28;2.83;;;0.60;;
22531;SDS011;11432;46.924;7.114;2022-10-16T07:11:53;2.63;;;0.77;;
22531;SDS011;11432;46.924;7.114;2022-10-16T07:14:20;0.50;;;0.40;;
22531;SDS011;11432;46.924;7.114;2022-10-16T07:16:46;0.85;;;0.70;;
22531;SDS011;11432;46.924;7.114;2022-10-16T07:19:13;1.05;;;0.65;;
22531;SDS011;11432;46.924;7.114;2022-10-16T07:21:40;1.65;;;0.60;;
22531;SDS011;11432;46.924;7.114;2022-10-16T07:24:07;1.75;;;0.65;;
22531;SDS011;11432;46.924;7.114;2022-10-16T07:26:37;3.20;;;2.20;;
22531;SDS011;11432;46.924;7.114;2022-10-16T07:29:04;2.97;;;1.75;;
22531;SDS011;11432;46.924;7.114;2022-10-16T07:31:31;2.20;;;1.77;;
22531;SDS011;11432;46.924;7.114;2022-10-16T07:33:57;2.50;;;1.00;;
22531;SDS011;11432;46.924;7.114;2022-10-16T07:36:24;3.08;;;0.98;;
22531;SDS011;11432;46.924;7.114;2022-10-16T07:38:49;1.58;;;1.10;;
22531;SDS011;11432;46.924;7.114;2022-10-16T07:41:16;2.33;;;1.10;;
22531;SDS011;11432;46.924;7.114;2022-10-16T07:43:51;3.25;;;1.50;;
22531;SDS011;11432;46.924;7.114;2022-10-16T07:46:17;1.30;;;0.95;;
22531;SDS011;11432;46.924;7.114;2022-10-16T07:48:45;1.10;;;0.80;;
22531;SDS011;11432;46.924;7.114;2022-10-16T07:51:13;2.88;;;1.13;;
22531;SDS011;11432;46.924;7.114;2022-10-16T07:53:43;2.72;;;1.58;;
22531;SDS011;11432;46.924;7.114;2022-10-16T07:56:09;2.55;;;1.30;;
22531;SDS011;11432;46.924;7.114;2022-10-16T07:58:35;5.32;;;1.38;;
22531;SDS011;11432;46.924;7.114;2022-10-16T08:01:09;2.15;;;1.20;;
22531;SDS011;11432;46.924;7.114;2022-10-16T08:03:36;1.35;;;1.10;;
22531;SDS011;11432;46.924;7.114;2022-10-16T08:06:02;1.45;;;1.10;;
22531;SDS011;11432;46.924;7.114;2022-10-16T08:08:38;1.67;;;1.08;;
22531;SDS011;11432;46.924;7.114;2022-10-16T08:11:04;2.55;;;1.10;;
22531;SDS011;11432;46.924;7.114;2022-10-16T08:13:30;5.50;;;1.30;;
22531;SDS011;11432;46.924;7.114;2022-10-16T08:15:55;1.50;;;0.80;;
22531;SDS011;11432;46.924;7.114;2022-10-16T08:18:21;0.70;;;0.63;;
22531;SDS011;11432;46.924;7.114;2022-10-16T08:23:15;1.20;;;0.82;;
22531;SDS011;11432;46.924;7.114;2022-10-16T08:25:40;1.17;;;0.82;;
22531;SDS011;11432;46.924;7.114;2022-10-16T08:28:07;1.00;;;0.80;;
22531;SDS011;11432;46.924;7.114;2022-10-16T08:30:35;2.88;;;1.17;;
22531;SDS011;11432;46.924;7.114;2022-10-16T08:33:01;2.50;;;1.23;;
22531;SDS011;11432;46.924;7.114;2022-10-16T08:35:27;2.00;;;1.27;;
22531;SDS011;11432;46.924;7.114;2022-10-16T08:37:53;2.55;;;1.20;;
22531;SDS011;11432;46.924;7.114;2022-10-16T08:45:34;2.50;;;1.00;;
22531;SDS011;11432;46.924;7.114;2022-10-16T08:51:01;1.08;;;0.63;;
22531;SDS011;11432;46.924;7.114;2022-10-16T08:53:33;0.90;;;0.65;;
22531;SDS011;11432;46.924;7.114;2022-10-16T08:58:32;2.38;;;0.73;;
22531;SDS011;11432;46.924;7.114;2022-10-16T09:01:00;1.65;;;0.80;;
22531;SDS011;11432;46.924;7.114;2022-10-16T09:03:48;0.95;;;0.55;;
22531;SDS011;11432;46.924;7.114;2022-10-16T09:09:21;1.10;;;0.70;;
22531;SDS011;11432;46.924;7.114;2022-10-16T09:12:36;1.30;;;0.73;;
22531;SDS011;11432;46.924;7.114;2022-10-16T09:23:28;1.48;;;0.82;;
22531;SDS011;11432;46.924;7.114;2022-10-16T09:25:55;2.65;;;0.88;;
22531;SDS011;11432;46.924;7.114;2022-10-16T09:28:23;1.17;;;0.70;;
22531;SDS011;11432;46.924;7.114;2022-10-16T09:30:48;1.42;;;0.70;;
22531;SDS011;11432;46.924;7.114;2022-10-16T09:33:14;1.92;;;0.98;;
22531;SDS011;11432;46.924;7.114;2022-10-16T09:40:55;1.20;;;0.90;;
22531;SDS011;11432;46.924;7.114;2022-10-16T09:43:23;1.67;;;0.75;;
22531;SDS011;11432;46.924;7.114;2022-10-16T09:46:00;4.45;;;1.10;;
22531;SDS011;11432;46.924;7.114;2022-10-16T09:48:31;2.08;;;0.95;;
22531;SDS011;11432;46.924;7.114;2022-10-16T09:51:03;0.98;;;0.80;;
22531;SDS011;11432;46.924;7.114;2022-10-16T09:56:04;3.03;;;0.70;;
22531;SDS011;11432;46.924;7.114;2022-10-16T09:58:31;1.70;;;0.80;;
22531;SDS011;11432;46.924;7.114;2022-10-16T10:00:58;1.80;;;0.95;;
22531;SDS011;11432;46.924;7.114;2022-10-16T10:03:33;1.27;;;0.65;;
22531;SDS011;11432;46.924;7.114;2022-10-16T10:06:00;1.20;;;0.70;;
22531;SDS011;11432;46.924;7.114;2022-10-16T10:08:53;3.03;;;0.80;;
22531;SDS011;11432;46.924;7.114;2022-10-16T10:11:35;0.80;;;0.60;;
22531;SDS011;11432;46.924;7.114;2022-10-16T10:14:17;0.95;;;0.60;;
22531;SDS011;11432;46.924;7.114;2022-10-16T10:17:11;1.30;;;0.90;;
22531;SDS011;11432;46.924;7.114;2022-10-16T10:19:42;1.35;;;0.60;;
22531;SDS011;11432;46.924;7.114;2022-10-16T10:30:40;4.28;;;0.75;;
22531;SDS011;11432;46.924;7.114;2022-10-16T10:33:30;1.58;;;0.60;;
22531;SDS011;11432;46.924;7.114;2022-10-16T10:39:14;0.80;;;0.55;;
22531;SDS011;11432;46.924;7.114;2022-10-16T10:41:55;1.38;;;0.80;;
22531;SDS011;11432;46.924;7.114;2022-10-16T10:47:35;0.98;;;0.60;;
22531;SDS011;11432;46.924;7.114;2022-10-16T11:06:19;2.58;;;0.70;;
22531;SDS011;11432;46.924;7.114;2022-10-16T11:11:46;0.98;;;0.75;;
22531;SDS011;11432;46.924;7.114;2022-10-16T11:14:22;2.60;;;0.70;;
22531;SDS011;11432;46.924;7.114;2022-10-16T11:16:52;1.00;;;0.70;;
22531;SDS011;11432;46.924;7.114;2022-10-16T11:19:45;1.00;;;0.70;;
22531;SDS011;11432;46.924;7.114;2022-10-16T11:22:27;1.23;;;0.60;;
22531;SDS011;11432;46.924;7.114;2022-10-16T11:25:02;1.13;;;0.50;;
22531;SDS011;11432;46.924;7.114;2022-10-16T11:30:55;1.00;;;0.50;;
22531;SDS011;11432;46.924;7.114;2022-10-16T11:33:39;1.15;;;0.63;;
22531;SDS011;11432;46.924;7.114;2022-10-16T11:39:26;0.77;;;0.65;;
22531;SDS011;11432;46.924;7.114;2022-10-16T11:41:59;1.80;;;0.80;;
22531;SDS011;11432;46.924;7.114;2022-10-16T11:47:27;0.75;;;0.50;;
22531;SDS011;11432;46.924;7.114;2022-10-16T11:53:11;1.85;;;0.52;;
22531;SDS011;11432;46.924;7.114;2022-10-16T11:55:48;0.73;;;0.40;;
22531;SDS011;11432;46.924;7.114;2022-10-16T12:01:03;1.00;;;0.70;;
22531;SDS011;11432;46.924;7.114;2022-10-16T12:06:19;0.85;;;0.50;;
22531;SDS011;11432;46.924;7.114;2022-10-16T12:08:51;1.48;;;0.75;;
22531;SDS011;11432;46.924;7.114;2022-10-16T12:14:03;1.77;;;0.60;;
22531;SDS011;11432;46.924;7.114;2022-10-16T12:16:59;1.30;;;0.50;;
22531;SDS011;11432;46.924;7.114;2022-10-16T12:19:28;1.17;;;0.60;;
22531;SDS011;11432;46.924;7.114;2022-10-16T12:21:56;1.45;;;0.70;;
22531;SDS011;11432;46.924;7.114;2022-10-16T12:24:31;1.77;;;0.63;;
22531;SDS011;11432;46.924;7.114;2022-10-16T12:26:57;1.15;;;0.55;;
22531;SDS011;11432;46.924;7.114;2022-10-16T12:31:59;1.40;;;0.60;;
22531;SDS011;11432;46.924;7.114;2022-10-16T12:34:28;1.10;;;0.50;;
22531;SDS011;11432;46.924;7.114;2022-10-16T12:39:48;1.08;;;0.60;;
22531;SDS011;11432;46.924;7.114;2022-10-16T12:44:52;2.45;;;0.77;;
22531;SDS011;11432;46.924;7.114;2022-10-16T12:47:37;2.25;;;0.95;;
22531;SDS011;11432;46.924;7.114;2022-10-16T12:50:26;1.63;;;0.82;;
22531;SDS011;11432;46.924;7.114;2022-10-16T12:52:52;2.08;;;0.60;;
22531;SDS011;11432;46.924;7.114;2022-10-16T12:55:19;1.63;;;0.55;;
22531;SDS011;11432;46.924;7.114;2022-10-16T12:58:00;1.50;;;0.75;;
22531;SDS011;11432;46.924;7.114;2022-10-16T13:00:32;1.35;;;0.65;;
22531;SDS011;11432;46.924;7.114;2022-10-16T13:11:37;1.35;;;0.60;;
22531;SDS011;11432;46.924;7.114;2022-10-16T13:14:45;1.00;;;0.60;;
22531;SDS011;11432;46.924;7.114;2022-10-16T13:22:29;3.83;;;0.70;;
22531;SDS011;11432;46.924;7.114;2022-10-16T13:30:39;0.70;;;0.55;;
22531;SDS011;11432;46.924;7.114;2022-10-16T13:33:07;1.30;;;0.70;;
22531;SDS011;11432;46.924;7.114;2022-10-16T13:35:50;1.15;;;0.55;;
22531;SDS011;11432;46.924;7.114;2022-10-16T13:38:23;0.70;;;0.55;;
22531;SDS011;11432;46.924;7.114;2022-10-16T13:40:54;1.48;;;0.63;;
22531;SDS011;11432;46.924;7.114;2022-10-16T13:43:23;0.60;;;0.50;;
22531;SDS011;11432;46.924;7.114;2022-10-16T13:48:27;1.42;;;0.60;;
22531;SDS011;11432;46.924;7.114;2022-10-16T13:53:27;1.10;;;0.70;;
22531;SDS011;11432;46.924;7.114;2022-10-16T13:55:54;2.20;;;0.90;;
22531;SDS011;11432;46.924;7.114;2022-10-16T13:58:21;0.90;;;0.60;;
22531;SDS011;11432;46.924;7.114;2022-10-16T14:00:53;1.45;;;0.70;;
22531;SDS011;11432;46.924;7.114;2022-10-16T14:03:24;1.40;;;0.60;;
22531;SDS011;11432;46.924;7.114;2022-10-16T14:05:55;2.10;;;1.00;;
22531;SDS011;11432;46.924;7.114;2022-10-16T14:08:24;0.77;;;0.63;;
22531;SDS011;11432;46.924;7.114;2022-10-16T14:10:51;1.13;;;0.73;;
22531;SDS011;11432;46.924;7.114;2022-10-16T14:13:21;1.60;;;0.80;;
22531;SDS011;11432;46.924;7.114;2022-10-16T14:16:02;1.90;;;0.70;;
22531;SDS011;11432;46.924;7.114;2022-10-16T14:18:32;0.93;;;0.63;;
22531;SDS011;11432;46.924;7.114;2022-10-16T14:21:02;1.15;;;0.70;;
22531;SDS011;11432;46.924;7.114;2022-10-16T14:23:36;1.15;;;0.50;;
22531;SDS011;11432;46.924;7.114;2022-10-16T14:28:36;1.52;;;0.90;;
22531;SDS011;11432;46.924;7.114;2022-10-16T14:31:14;0.63;;;0.50;;
22531;SDS011;11432;46.924;7.114;2022-10-16T14:33:52;2.67;;;0.90;;
22531;SDS011;11432;46.924;7.114;2022-10-16T14:36:18;1.48;;;0.90;;
22531;SDS011;11432;46.924;7.114;2022-10-16T14:38:50;1.92;;;0.80;;
22531;SDS011;11432;46.924;7.114;2022-10-16T14:41:32;1.80;;;0.70;;
22531;SDS011;11432;46.924;7.114;2022-10-16T14:44:05;0.70;;;0.50;;
22531;SDS011;11432;46.924;7.114;2022-10-16T14:46:32;1.08;;;0.68;;
22531;SDS011;11432;46.924;7.114;2022-10-16T14:49:04;0.95;;;0.68;;
22531;SDS011;11432;46.924;7.114;2022-10-16T14:51:50;1.80;;;0.52;;
22531;SDS011;11432;46.924;7.114;2022-10-16T14:54:17;1.77;;;0.70;;
22531;SDS011;11432;46.924;7.114;2022-10-16T14:59:18;1.02;;;0.50;;
22531;SDS011;11432;46.924;7.114;2022-10-16T15:01:52;1.20;;;0.70;;
22531;SDS011;11432;46.924;7.114;2022-10-16T15:04:18;1.52;;;0.77;;
22531;SDS011;11432;46.924;7.114;2022-10-16T15:06:44;1.83;;;0.75;;
22531;SDS011;11432;46.924;7.114;2022-10-16T15:09:10;0.95;;;0.50;;
22531;SDS011;11432;46.924;7.114;2022-10-16T15:11:36;1.00;;;0.47;;
22531;SDS011;11432;46.924;7.114;2022-10-16T15:14:02;0.63;;;0.50;;
22531;SDS011;11432;46.924;7.114;2022-10-16T15:16:28;0.82;;;0.63;;
22531;SDS011;11432;46.924;7.114;2022-10-16T15:18:55;1.17;;;0.70;;
22531;SDS011;11432;46.924;7.114;2022-10-16T15:21:22;2.03;;;0.60;;
22531;SDS011;11432;46.924;7.114;2022-10-16T15:23:51;2.47;;;0.80;;
22531;SDS011;11432;46.924;7.114;2022-10-16T15:26:17;1.73;;;0.70;;
22531;SDS011;11432;46.924;7.114;2022-10-16T15:28:42;1.25;;;0.60;;
22531;SDS011;11432;46.924;7.114;2022-10-16T15:31:08;1.10;;;0.77;;
22531;SDS011;11432;46.924;7.114;2022-10-16T15:33:34;1.70;;;0.75;;
22531;SDS011;11432;46.924;7.114;2022-10-16T15:36:00;0.63;;;0.60;;
22531;SDS011;11432;46.924;7.114;2022-10-16T15:38:27;1.75;;;0.80;;
22531;SDS011;11432;46.924;7.114;2022-10-16T15:40:54;0.70;;;0.50;;
22531;SDS011;11432;46.924;7.114;2022-10-16T15:43:20;3.40;;;0.82;;
22531;SDS011;11432;46.924;7.114;2022-10-16T15:48:26;1.20;;;0.70;;
22531;SDS011;11432;46.924;7.114;2022-10-16T15:50:53;1.83;;;0.70;;
22531;SDS011;11432;46.924;7.114;2022-10-16T15:53:18;0.80;;;0.60;;
22531;SDS011;11432;46.924;7.114;2022-10-16T15:55:44;0.90;;;0.55;;
22531;SDS011;11432;46.924;7.114;2022-10-16T15:58:09;1.95;;;0.60;;
22531;SDS011;11432;46.924;7.114;2022-10-16T16:00:35;1.20;;;0.70;;
22531;SDS011;11432;46.924;7.114;2022-10-16T16:03:01;1.52;;;0.70;;
22531;SDS011;11432;46.924;7.114;2022-10-16T16:05:26;2.35;;;0.60;;
22531;SDS011;11432;46.924;7.114;2022-10-16T16:07:52;0.85;;;0.70;;
22531;SDS011;11432;46.924;7.114;2022-10-16T16:10:18;0.73;;;0.52;;
22531;SDS011;11432;46.924;7.114;2022-10-16T16:12:46;1.42;;;0.65;;
22531;SDS011;11432;46.924;7.114;2022-10-16T16:15:19;1.65;;;0.93;;
22531;SDS011;11432;46.924;7.114;2022-10-16T16:17:45;1.73;;;0.70;;
22531;SDS011;11432;46.924;7.114;2022-10-16T16:20:11;1.10;;;0.70;;
22531;SDS011;11432;46.924;7.114;2022-10-16T16:22:37;1.30;;;0.70;;
22531;SDS011;11432;46.924;7.114;2022-10-16T16:25:03;1.30;;;0.70;;
22531;SDS011;11432;46.924;7.114;2022-10-16T16:27:29;0.82;;;0.70;;
22531;SDS011;11432;46.924;7.114;2022-10-16T16:29:58;1.15;;;0.65;;
22531;SDS011;11432;46.924;7.114;2022-10-16T16:32:24;1.45;;;0.80;;
22531;SDS011;11432;46.924;7.114;2022-10-16T16:34:49;2.17;;;0.70;;
22531;SDS011;11432;46.924;7.114;2022-10-16T16:37:15;1.20;;;0.70;;
22531;SDS011;11432;46.924;7.114;2022-10-16T16:39:41;1.25;;;0.77;;
22531;SDS011;11432;46.924;7.114;2022-10-16T16:42:07;1.63;;;0.80;;
22531;SDS011;11432;46.924;7.114;2022-10-16T16:44:33;1.40;;;0.65;;
22531;SDS011;11432;46.924;7.114;2022-10-16T16:47:01;1.38;;;0.90;;
22531;SDS011;11432;46.924;7.114;2022-10-16T16:49:27;2.13;;;1.05;;
22531;SDS011;11432;46.924;7.114;2022-10-16T16:51:53;3.40;;;1.20;;
22531;SDS011;11432;46.924;7.114;2022-10-16T16:54:19;2.03;;;1.20;;
22531;SDS011;11432;46.924;7.114;2022-10-16T16:56:45;2.83;;;1.33;;
22531;SDS011;11432;46.924;7.114;2022-10-16T16:59:12;3.28;;;1.15;;
22531;SDS011;11432;46.924;7.114;2022-10-16T17:01:39;1.80;;;1.02;;
22531;SDS011;11432;46.924;7.114;2022-10-16T17:04:05;7.60;;;2.80;;
22531;SDS011;11432;46.924;7.114;2022-10-16T17:06:31;12.13;;;3.17;;
22531;SDS011;11432;46.924;7.114;2022-10-16T17:08:57;5.07;;;2.00;;
22531;SDS011;11432;46.924;7.114;2022-10-16T17:11:25;6.13;;;2.35;;
22531;SDS011;11432;46.924;7.114;2022-10-16T17:13:51;6.80;;;2.67;;
22531;SDS011;11432;46.924;7.114;2022-10-16T17:16:19;4.57;;;1.80;;
22531;SDS011;11432;46.924;7.114;2022-10-16T17:18:45;6.07;;;1.60;;
22531;SDS011;11432;46.924;7.114;2022-10-16T17:21:10;3.25;;;1.25;;
22531;SDS011;11432;46.924;7.114;2022-10-16T17:23:52;2.72;;;1.38;;